createdAt,value
2022-08-03T00:01:12.864Z,19.7
2022-08-03T00:11:15.461Z,19.6
2022-08-03T00:21:17.454Z,19.4
2022-08-03T00:41:21.886Z,19.2
2022-08-03T00:51:23.935Z,19
2022-08-03T01:01:25.836Z,18.9
2022-08-03T01:41:33.331Z,18.6
2022-08-03T02:02:15.199Z,18.4
2022-08-03T02:11:39.473Z,18.3
2022-08-03T02:21:56.026Z,18.3
2022-08-03T02:41:46.418Z,18.2
2022-08-03T02:51:48.728Z,18.2
2022-08-03T03:01:50.514Z,18.1
2022-08-03T03:11:52.218Z,18
2022-08-03T03:21:54.809Z,17.9
2022-08-03T03:31:56.770Z,18
2022-08-03T03:52:01.154Z,18
2022-08-03T04:32:10.303Z,17.9
2022-08-03T04:42:12.053Z,18
2022-08-03T04:52:20.998Z,18.3
2022-08-03T05:02:15.927Z,18.6
2022-08-03T05:12:17.895Z,19.2
2022-08-03T05:32:22.672Z,20.4
2022-08-03T05:42:24.146Z,21.1
2022-08-03T05:52:26.271Z,21.3
2022-08-03T06:02:28.828Z,21.8
2022-08-03T06:12:30.555Z,22.2
2022-08-03T06:22:32.365Z,22.2
2022-08-03T06:32:34.804Z,22.4
2022-08-03T06:42:36.928Z,22.7
2022-08-03T06:52:38.928Z,23.4
2022-08-03T07:02:41.207Z,23.9
2022-08-03T07:12:52.878Z,24.5
2022-08-03T07:22:44.908Z,24.6
2022-08-03T07:32:49.016Z,25.4
2022-08-03T07:42:52.232Z,25.3
2022-08-03T07:52:50.887Z,25.4
2022-08-03T08:12:54.497Z,26.1
2022-08-03T08:22:56.990Z,26.8
2022-08-03T08:43:01.400Z,27
2022-08-03T08:53:04.031Z,27.4
2022-08-03T09:13:08.468Z,28.4
2022-08-03T09:23:33.391Z,28.1
2022-08-03T09:33:12.961Z,28.1
2022-08-03T09:43:15.431Z,28.5
2022-08-03T09:53:17.340Z,28.3
2022-08-03T10:03:19.103Z,28.2
2022-08-03T10:33:50.558Z,29.3
2022-08-03T10:53:29.369Z,28.8
2022-08-03T11:03:31.393Z,29.3
2022-08-03T11:13:33.367Z,29.2
2022-08-03T11:24:03.921Z,29.9
2022-08-03T11:43:40.113Z,30.6
2022-08-03T11:53:42.371Z,30.5
2022-08-03T12:03:44.639Z,31.1
2022-08-03T12:23:48.499Z,30.5
2022-08-03T12:33:50.445Z,31
2022-08-03T12:43:52.962Z,30.6
2022-08-03T12:53:54.698Z,31
2022-08-03T13:24:00.531Z,31.1
2022-08-03T13:44:26.417Z,31.7
2022-08-03T13:54:07.003Z,32.2
2022-08-03T14:14:11.055Z,32
2022-08-03T14:24:13.079Z,32.3
2022-08-03T14:34:15.440Z,31.9
2022-08-03T14:44:17.670Z,31.6
2022-08-03T14:54:19.682Z,32
2022-08-03T15:14:28.241Z,32.8
2022-08-03T15:14:32.456Z,32.7
2022-08-03T15:24:32.819Z,32.5
2022-08-03T15:34:34.604Z,32.5
2022-08-03T15:44:36.352Z,32.4
2022-08-03T15:54:38.440Z,32.4
2022-08-03T16:04:40.736Z,32.3
2022-08-03T16:24:44.263Z,31.7
2022-08-03T16:34:46.747Z,31.5
2022-08-03T16:44:49.279Z,31.4
2022-08-03T16:54:52.927Z,31.8
2022-08-03T17:04:53.899Z,31.5
2022-08-03T17:14:56.469Z,31.6
2022-08-03T17:24:59.036Z,31.2
2022-08-03T17:35:01.151Z,31.2
2022-08-03T17:45:03.731Z,30.9
2022-08-03T18:05:16.132Z,30.8
2022-08-03T18:15:13.256Z,30.6
2022-08-03T18:25:12.304Z,30
2022-08-03T18:35:13.925Z,29.6
2022-08-03T18:45:56.629Z,29
2022-08-03T19:15:36.292Z,28.3
2022-08-03T19:25:33.366Z,27.6
2022-08-03T19:35:49.715Z,27.4
2022-08-03T19:45:30.944Z,27
2022-08-03T19:55:32.248Z,26.6
2022-08-03T20:15:35.489Z,26
2022-08-03T20:35:41.859Z,25.5
2022-08-03T20:55:47.326Z,24.9
2022-08-03T21:05:48.203Z,24.7
2022-08-03T21:35:52.195Z,24
2022-08-03T21:55:56.661Z,23.6
2022-08-03T22:06:04.995Z,23.5
2022-08-03T22:16:01.230Z,23.3
2022-08-03T22:26:03.106Z,23.2
2022-08-03T22:36:05.306Z,23
2022-08-03T22:46:12.435Z,22.8
2022-08-03T22:56:08.905Z,22.7
2022-08-03T23:06:10.878Z,22.6
2022-08-03T23:16:13.283Z,22.3
2022-08-03T23:56:20.988Z,21.8
